createdAt,value
2023-06-08T00:00:08.102Z,49.31
2023-06-08T00:01:07.872Z,49.25
2023-06-08T00:02:07.910Z,49.37
2023-06-08T00:03:08.062Z,49.27
2023-06-08T00:04:08.062Z,49.45
2023-06-08T00:05:08.207Z,49.37
2023-06-08T00:06:08.166Z,49.69
2023-06-08T00:07:08.227Z,49.64
2023-06-08T00:08:08.248Z,49.80
2023-06-08T00:09:08.310Z,50.06
2023-06-08T00:10:08.550Z,50.08
2023-06-08T00:11:08.509Z,50.12
2023-06-08T00:12:08.401Z,50.20
2023-06-08T00:13:08.427Z,50.05
2023-06-08T00:14:08.455Z,49.88
2023-06-08T00:15:08.555Z,49.95
2023-06-08T00:16:08.533Z,49.34
2023-06-08T00:17:08.522Z,49.17
2023-06-08T00:18:08.680Z,49.21
2023-06-08T00:19:08.608Z,49.08
2023-06-08T00:20:08.752Z,48.19
2023-06-08T00:21:08.596Z,48.02
2023-06-08T00:22:08.724Z,47.91
2023-06-08T00:23:08.735Z,47.90
2023-06-08T00:24:08.950Z,47.86
2023-06-08T00:25:08.876Z,48.39
2023-06-08T00:26:08.908Z,48.57
2023-06-08T00:27:08.913Z,48.59
2023-06-08T00:28:08.930Z,48.76
2023-06-08T00:29:08.897Z,49.00
2023-06-08T00:30:09.142Z,49.04
2023-06-08T00:31:08.995Z,49.20
2023-06-08T00:32:09.034Z,49.61
2023-06-08T00:33:08.980Z,50.48
2023-06-08T00:34:08.986Z,50.92
2023-06-08T00:35:08.975Z,51.34
2023-06-08T00:36:09.018Z,51.22
2023-06-08T00:37:09.041Z,50.97
2023-06-08T00:38:09.058Z,50.91
2023-06-08T00:39:09.089Z,50.59
2023-06-08T00:40:09.432Z,50.38
2023-06-08T00:41:09.117Z,50.12
2023-06-08T00:42:09.139Z,49.85
2023-06-08T00:43:09.201Z,49.81
2023-06-08T00:44:09.185Z,49.73
2023-06-08T00:45:09.244Z,49.69
2023-06-08T00:46:09.322Z,49.58
2023-06-08T00:47:09.295Z,49.35
2023-06-08T00:48:09.378Z,49.17
2023-06-08T00:49:09.365Z,49.09
2023-06-08T00:50:09.414Z,49.05
2023-06-08T00:51:09.416Z,49.15
2023-06-08T00:52:12.600Z,49.34
2023-06-08T00:53:09.706Z,49.76
2023-06-08T00:54:09.411Z,50.43
2023-06-08T00:55:09.397Z,50.91
2023-06-08T00:56:09.398Z,51.08
2023-06-08T00:57:09.384Z,51.39
2023-06-08T00:58:09.380Z,51.37
2023-06-08T00:59:09.368Z,51.48
2023-06-08T01:00:09.461Z,51.69
2023-06-08T01:01:09.369Z,51.81
2023-06-08T01:02:09.368Z,51.74
2023-06-08T01:03:09.715Z,51.76
2023-06-08T01:04:09.357Z,51.63
2023-06-08T01:05:09.352Z,51.62
2023-06-08T01:06:09.563Z,51.81
2023-06-08T01:07:09.352Z,51.88
2023-06-08T01:08:09.352Z,51.95
2023-06-08T01:09:09.322Z,51.74
2023-06-08T01:10:09.382Z,51.68
2023-06-08T01:11:09.287Z,51.89
2023-06-08T01:12:09.293Z,52.25
2023-06-08T01:13:09.305Z,52.30
2023-06-08T01:14:09.283Z,52.11
2023-06-08T01:15:09.304Z,52.13
2023-06-08T01:16:09.387Z,52.26
2023-06-08T01:17:09.268Z,52.21
2023-06-08T01:18:09.344Z,52.35
2023-06-08T01:19:09.260Z,52.30
2023-06-08T01:20:09.441Z,52.07
2023-06-08T01:21:09.258Z,51.92
2023-06-08T01:22:09.226Z,52.12
2023-06-08T01:23:09.234Z,52.28
2023-06-08T01:24:09.319Z,52.12
2023-06-08T01:25:09.216Z,52.08
2023-06-08T01:26:09.193Z,52.12
2023-06-08T01:27:09.214Z,52.05
2023-06-08T01:28:09.184Z,51.89
2023-06-08T01:29:09.195Z,51.99
2023-06-08T01:30:09.756Z,51.60
2023-06-08T01:31:09.206Z,51.47
2023-06-08T01:32:09.199Z,51.32
2023-06-08T01:33:09.212Z,51.35
2023-06-08T01:34:09.148Z,51.93
2023-06-08T01:35:09.167Z,51.98
2023-06-08T01:36:09.224Z,51.98
2023-06-08T01:37:09.272Z,52.18
2023-06-08T01:38:09.301Z,52.25
2023-06-08T01:39:09.364Z,52.07
2023-06-08T01:40:09.717Z,52.00
2023-06-08T01:41:09.494Z,52.05
2023-06-08T01:42:09.553Z,51.37
2023-06-08T01:43:09.701Z,51.33
2023-06-08T01:44:09.683Z,51.30
2023-06-08T01:45:09.754Z,51.43
2023-06-08T01:46:09.919Z,51.55
2023-06-08T01:47:10.090Z,51.04
2023-06-08T01:48:09.996Z,50.79
2023-06-08T01:49:10.036Z,50.62
2023-06-08T01:50:10.272Z,50.56
2023-06-08T01:51:10.092Z,50.52
2023-06-08T01:52:10.862Z,50.78
2023-06-08T01:53:10.249Z,51.16
2023-06-08T01:54:10.317Z,50.90
2023-06-08T01:55:10.381Z,50.79
2023-06-08T01:56:10.409Z,51.50
2023-06-08T01:57:10.488Z,51.57
2023-06-08T01:58:10.552Z,51.01
2023-06-08T01:59:10.588Z,50.50
2023-06-08T02:00:10.667Z,50.32
2023-06-08T02:01:10.790Z,51.03
2023-06-08T02:02:10.767Z,51.13
2023-06-08T02:03:10.864Z,51.16
2023-06-08T02:04:10.869Z,51.06
2023-06-08T02:05:10.898Z,51.34
2023-06-08T02:06:10.949Z,51.36
2023-06-08T02:07:10.982Z,51.39
2023-06-08T02:08:11.073Z,51.32
2023-06-08T02:09:11.125Z,51.22
2023-06-08T02:10:11.185Z,51.21
2023-06-08T02:11:11.239Z,50.76
2023-06-08T02:12:11.302Z,50.40
2023-06-08T02:13:11.347Z,50.39
2023-06-08T02:14:11.449Z,50.48
2023-06-08T02:15:11.459Z,51.00
2023-06-08T02:16:11.568Z,51.39
2023-06-08T02:17:11.682Z,51.63
2023-06-08T02:18:11.674Z,51.98
2023-06-08T02:19:11.635Z,52.42
2023-06-08T02:20:11.699Z,52.64
2023-06-08T02:21:11.778Z,52.83
2023-06-08T02:22:11.839Z,52.86
2023-06-08T02:23:11.889Z,52.99
2023-06-08T02:24:11.983Z,53.05
2023-06-08T02:25:12.000Z,53.26
2023-06-08T02:26:12.054Z,53.18
2023-06-08T02:27:12.147Z,53.18
2023-06-08T02:28:12.210Z,53.20
2023-06-08T02:29:12.217Z,53.26
2023-06-08T02:30:12.286Z,53.34
2023-06-08T02:31:12.327Z,53.31
2023-06-08T02:32:12.320Z,53.47
2023-06-08T02:33:12.390Z,53.47
2023-06-08T02:34:12.381Z,53.40
2023-06-08T02:35:12.396Z,53.34
2023-06-08T02:36:12.499Z,53.33
2023-06-08T02:37:12.487Z,53.49
2023-06-08T02:38:12.435Z,53.56
2023-06-08T02:39:12.675Z,53.64
2023-06-08T02:40:12.510Z,53.46
2023-06-08T02:41:12.497Z,53.46
2023-06-08T02:42:12.476Z,53.47
2023-06-08T02:43:12.501Z,53.61
2023-06-08T02:44:12.507Z,53.60
2023-06-08T02:45:12.505Z,53.61
2023-06-08T02:46:12.565Z,53.59
2023-06-08T02:47:12.540Z,53.67
2023-06-08T02:48:12.535Z,53.42
2023-06-08T02:49:12.561Z,53.47
2023-06-08T02:50:12.549Z,53.34
2023-06-08T02:51:12.583Z,53.43
2023-06-08T02:52:12.563Z,53.59
2023-06-08T02:53:12.598Z,53.55
2023-06-08T02:54:12.629Z,53.54
2023-06-08T02:55:12.719Z,53.63
2023-06-08T02:56:12.742Z,53.57
2023-06-08T02:57:12.807Z,53.47
2023-06-08T02:58:12.861Z,53.44
2023-06-08T02:59:12.840Z,53.43
2023-06-08T03:00:13.114Z,53.36
2023-06-08T03:01:20.989Z,53.58
2023-06-08T03:02:14.025Z,53.91
2023-06-08T03:03:13.036Z,53.91
2023-06-08T03:04:12.966Z,54.13
2023-06-08T03:05:12.887Z,54.19
2023-06-08T03:06:12.900Z,54.01
2023-06-08T03:07:12.871Z,53.82
2023-06-08T03:08:12.914Z,53.88
2023-06-08T03:09:12.847Z,54.14
2023-06-08T03:10:13.036Z,54.15
2023-06-08T03:11:12.847Z,54.23
2023-06-08T03:12:12.800Z,54.19
2023-06-08T03:13:12.814Z,54.15
2023-06-08T03:14:12.795Z,54.17
2023-06-08T03:15:12.826Z,54.50
2023-06-08T03:16:12.836Z,54.61
2023-06-08T03:17:12.799Z,54.73
2023-06-08T03:18:13.271Z,54.62
2023-06-08T03:19:12.882Z,54.45
2023-06-08T03:20:12.964Z,54.38
2023-06-08T03:21:12.972Z,54.38
2023-06-08T03:22:13.050Z,54.37
2023-06-08T03:23:13.068Z,54.71
2023-06-08T03:24:13.216Z,54.80
2023-06-08T03:25:13.213Z,54.74
2023-06-08T03:26:13.268Z,54.90
2023-06-08T03:27:13.318Z,54.93
2023-06-08T03:28:13.362Z,54.92
2023-06-08T03:29:13.377Z,54.91
2023-06-08T03:30:14.250Z,55.09
2023-06-08T03:31:14.284Z,55.14
2023-06-08T03:32:13.489Z,55.14
2023-06-08T03:33:13.489Z,55.01
2023-06-08T03:34:13.535Z,55.06
2023-06-08T03:35:13.547Z,55.04
2023-06-08T03:36:13.561Z,54.86
2023-06-08T03:37:13.582Z,54.85
2023-06-08T03:38:13.580Z,54.78
2023-06-08T03:39:13.662Z,54.83
2023-06-08T03:40:13.618Z,55.09
2023-06-08T03:41:13.668Z,55.35
2023-06-08T03:42:13.608Z,55.52
2023-06-08T03:43:13.667Z,55.21
2023-06-08T03:44:13.646Z,55.02
2023-06-08T03:45:13.653Z,55.16
2023-06-08T03:46:13.723Z,55.15
2023-06-08T03:47:13.669Z,55.11
2023-06-08T03:48:13.672Z,54.95
2023-06-08T03:49:13.702Z,54.99
2023-06-08T03:50:13.660Z,54.99
2023-06-08T03:51:13.693Z,54.91
2023-06-08T03:52:13.685Z,54.91
2023-06-08T03:53:13.724Z,54.73
2023-06-08T03:54:13.725Z,54.61
2023-06-08T03:55:13.707Z,54.55
2023-06-08T03:56:13.738Z,54.23
2023-06-08T03:57:13.775Z,54.10
2023-06-08T03:58:13.841Z,54.14
2023-06-08T03:59:13.741Z,54.08
2023-06-08T04:00:13.775Z,54.17
2023-06-08T04:01:13.814Z,54.37
2023-06-08T04:02:13.934Z,54.31
2023-06-08T04:03:13.929Z,54.26
2023-06-08T04:04:13.844Z,54.29
2023-06-08T04:05:13.819Z,54.54
2023-06-08T04:06:13.860Z,54.57
2023-06-08T04:07:13.887Z,54.68
2023-06-08T04:08:13.828Z,54.66
2023-06-08T04:09:13.863Z,54.58
2023-06-08T04:10:13.832Z,54.53
2023-06-08T04:11:13.911Z,54.52
2023-06-08T04:12:13.901Z,54.58
2023-06-08T04:13:13.935Z,54.72
2023-06-08T04:14:13.915Z,54.95
2023-06-08T04:15:13.882Z,55.21
2023-06-08T04:16:14.017Z,55.12
2023-06-08T04:17:13.910Z,55.11
2023-06-08T04:18:13.946Z,55.16
2023-06-08T04:19:13.975Z,54.85
2023-06-08T04:20:13.962Z,54.79
2023-06-08T04:21:13.953Z,54.92
2023-06-08T04:22:13.962Z,54.89
2023-06-08T04:23:14.035Z,54.87
2023-06-08T04:24:14.010Z,55.02
2023-06-08T04:25:13.998Z,55.00
2023-06-08T04:26:13.985Z,54.96
2023-06-08T04:27:13.997Z,54.85
2023-06-08T04:28:13.994Z,54.95
2023-06-08T04:29:14.110Z,55.23
2023-06-08T04:30:14.038Z,55.58
2023-06-08T04:31:14.065Z,55.33
2023-06-08T04:32:14.050Z,55.66
2023-06-08T04:33:14.104Z,55.54
2023-06-08T04:34:14.063Z,55.77
2023-06-08T04:35:14.108Z,55.84
2023-06-08T04:36:14.070Z,55.69
2023-06-08T04:37:14.060Z,55.90
2023-06-08T04:38:14.908Z,56.15
2023-06-08T04:39:14.095Z,56.00
2023-06-08T04:40:14.118Z,56.00
2023-06-08T04:41:14.128Z,55.98
2023-06-08T04:42:14.111Z,55.97
2023-06-08T04:43:14.307Z,55.99
2023-06-08T04:44:14.152Z,55.92
2023-06-08T04:45:14.140Z,55.92
2023-06-08T04:46:14.135Z,55.95
2023-06-08T04:47:14.223Z,55.82
2023-06-08T04:48:14.176Z,55.69
2023-06-08T04:49:14.139Z,55.38
2023-06-08T04:50:14.184Z,55.27
2023-06-08T04:51:14.146Z,55.34
2023-06-08T04:52:14.153Z,55.01
2023-06-08T04:53:14.218Z,54.88
2023-06-08T04:54:14.223Z,54.89
2023-06-08T04:55:14.317Z,55.05
2023-06-08T04:56:14.184Z,55.13
2023-06-08T04:57:14.193Z,55.28
2023-06-08T04:58:14.288Z,55.63
2023-06-08T04:59:14.224Z,56.07
2023-06-08T05:00:14.227Z,56.16
2023-06-08T05:01:14.217Z,56.15
2023-06-08T05:02:14.206Z,56.06
2023-06-08T05:03:14.312Z,56.19
2023-06-08T05:04:14.324Z,56.51
2023-06-08T05:05:14.270Z,56.88
2023-06-08T05:06:14.283Z,57.20
2023-06-08T05:07:14.274Z,57.37
2023-06-08T05:08:14.324Z,57.62
2023-06-08T05:09:14.300Z,57.76
2023-06-08T05:10:14.313Z,57.71
2023-06-08T05:11:14.312Z,57.81
2023-06-08T05:12:14.340Z,57.81
2023-06-08T05:13:14.358Z,57.45
2023-06-08T05:14:14.482Z,57.27
2023-06-08T05:15:14.307Z,57.19
2023-06-08T05:16:14.366Z,57.17
2023-06-08T05:17:14.457Z,57.07
2023-06-08T05:18:14.448Z,57.00
2023-06-08T05:19:14.366Z,56.99
2023-06-08T05:20:14.354Z,56.58
2023-06-08T05:21:14.367Z,56.20
2023-06-08T05:22:14.395Z,56.18
2023-06-08T05:23:14.370Z,56.45
2023-06-08T05:24:14.562Z,57.00
2023-06-08T05:25:14.368Z,57.51
2023-06-08T05:26:14.370Z,57.65
2023-06-08T05:27:14.362Z,57.71
2023-06-08T05:28:14.396Z,57.52
2023-06-08T05:29:14.447Z,57.09
2023-06-08T05:30:14.493Z,56.78
2023-06-08T05:31:14.651Z,56.85
2023-06-08T05:32:14.625Z,56.48
2023-06-08T05:33:14.666Z,56.19
2023-06-08T05:34:14.651Z,56.33
2023-06-08T05:35:14.661Z,55.98
2023-06-08T05:36:14.664Z,56.09
2023-06-08T05:37:14.708Z,55.87
2023-06-08T05:38:14.738Z,55.63
2023-06-08T05:39:14.745Z,55.80
2023-06-08T05:40:14.816Z,55.94
2023-06-08T05:41:14.758Z,55.86
2023-06-08T05:42:14.773Z,55.55
2023-06-08T05:43:14.831Z,55.59
2023-06-08T05:44:14.783Z,55.29
2023-06-08T05:45:15.787Z,55.04
2023-06-08T05:46:14.817Z,55.11
2023-06-08T05:47:14.797Z,54.97
2023-06-08T05:48:14.879Z,54.83
2023-06-08T05:49:14.899Z,54.65
2023-06-08T05:50:14.835Z,54.60
2023-06-08T05:51:14.820Z,54.82
2023-06-08T05:52:14.818Z,55.09
2023-06-08T05:53:14.870Z,55.07
2023-06-08T05:54:14.859Z,55.20
2023-06-08T05:55:14.953Z,54.91
2023-06-08T05:56:14.963Z,54.67
2023-06-08T05:57:15.007Z,54.14
2023-06-08T05:58:15.105Z,53.76
2023-06-08T05:59:15.115Z,53.64
2023-06-08T06:00:15.175Z,53.74
2023-06-08T06:01:15.254Z,54.16
2023-06-08T06:02:15.298Z,53.87
2023-06-08T06:03:15.537Z,53.85
2023-06-08T06:04:22.650Z,53.90
2023-06-08T06:05:16.517Z,53.77
2023-06-08T06:06:16.304Z,53.86
2023-06-08T06:07:15.399Z,54.02
2023-06-08T06:08:15.392Z,54.52
2023-06-08T06:09:15.371Z,54.21
2023-06-08T06:10:15.383Z,54.25
2023-06-08T06:11:15.394Z,54.31
2023-06-08T06:12:16.301Z,54.21
2023-06-08T06:13:15.402Z,54.07
2023-06-08T06:14:15.352Z,54.13
2023-06-08T06:15:15.364Z,54.23
2023-06-08T06:16:16.441Z,54.12
2023-06-08T06:17:15.395Z,54.14
2023-06-08T06:18:15.360Z,54.25
2023-06-08T06:19:15.310Z,54.11
2023-06-08T06:20:15.323Z,54.01
2023-06-08T06:21:15.296Z,53.81
2023-06-08T06:22:15.395Z,53.65
2023-06-08T06:23:15.506Z,53.45
2023-06-08T06:24:15.554Z,53.36
2023-06-08T06:25:15.517Z,53.23
2023-06-08T06:26:15.541Z,53.38
2023-06-08T06:27:16.303Z,53.50
2023-06-08T06:28:15.563Z,53.32
2023-06-08T06:29:15.517Z,53.24
2023-06-08T06:30:15.503Z,53.06
2023-06-08T06:31:15.545Z,52.60
2023-06-08T06:32:15.777Z,52.27
2023-06-08T06:33:15.744Z,52.40
2023-06-08T06:34:15.698Z,52.56
2023-06-08T06:35:15.803Z,52.57
2023-06-08T06:36:15.829Z,52.90
2023-06-08T06:37:15.853Z,52.68
2023-06-08T06:38:16.477Z,52.45
2023-06-08T06:39:16.014Z,52.39
2023-06-08T06:40:16.054Z,52.69
2023-06-08T06:41:16.136Z,52.85
2023-06-08T06:42:16.193Z,53.06
2023-06-08T06:43:16.238Z,52.07
2023-06-08T06:44:16.296Z,51.98
2023-06-08T06:45:16.353Z,51.49
2023-06-08T06:46:16.455Z,51.36
2023-06-08T06:47:16.503Z,50.68
2023-06-08T06:48:16.846Z,50.86
2023-06-08T06:49:16.560Z,51.16
2023-06-08T06:50:16.592Z,51.27
2023-06-08T06:51:16.582Z,51.38
2023-06-08T06:52:16.600Z,51.32
2023-06-08T06:53:16.613Z,52.18
2023-06-08T06:54:16.673Z,52.29
2023-06-08T06:55:16.662Z,51.55
2023-06-08T06:56:16.688Z,51.52
2023-06-08T06:57:16.666Z,50.72
2023-06-08T06:58:16.715Z,50.72
2023-06-08T06:59:16.685Z,50.56
2023-06-08T07:00:16.692Z,50.72
2023-06-08T07:01:16.725Z,50.84
2023-06-08T07:02:16.720Z,51.63
2023-06-08T07:03:16.782Z,51.67
2023-06-08T07:04:16.721Z,50.59
2023-06-08T07:05:16.745Z,49.94
2023-06-08T07:06:16.820Z,49.11
2023-06-08T07:07:16.740Z,48.82
2023-06-08T07:08:16.757Z,48.98
2023-06-08T07:09:16.759Z,49.12
2023-06-08T07:10:16.818Z,49.07
2023-06-08T07:11:16.813Z,49.33
2023-06-08T07:12:16.998Z,49.17
2023-06-08T07:13:16.801Z,49.27
2023-06-08T07:14:16.814Z,49.93
2023-06-08T07:15:16.817Z,49.91
2023-06-08T07:16:16.843Z,50.22
2023-06-08T07:17:16.848Z,50.63
2023-06-08T07:18:16.816Z,50.14
2023-06-08T07:19:16.926Z,49.30
2023-06-08T07:20:16.835Z,48.76
2023-06-08T07:21:16.837Z,47.98
2023-06-08T07:22:21.327Z,47.68
2023-06-08T07:23:18.992Z,47.77
2023-06-08T07:25:29.746Z,48.22
2023-06-08T07:25:47.328Z,48.64
2023-06-08T07:26:28.594Z,49.88
2023-06-08T07:27:16.797Z,49.71
2023-06-08T07:28:16.840Z,49.89
2023-06-08T07:29:16.830Z,49.62
2023-06-08T07:30:16.772Z,49.93
2023-06-08T07:31:16.791Z,50.00
2023-06-08T07:32:16.776Z,49.45
2023-06-08T07:33:16.761Z,49.44
2023-06-08T07:34:16.725Z,49.33
2023-06-08T07:35:16.743Z,49.05
2023-06-08T07:36:16.717Z,48.33
2023-06-08T07:37:16.737Z,48.14
2023-06-08T07:38:16.709Z,47.69
2023-06-08T07:39:16.855Z,48.39
2023-06-08T07:41:16.707Z,48.66
2023-06-08T07:42:16.681Z,48.02
2023-06-08T07:43:17.339Z,47.92
2023-06-08T07:44:16.711Z,47.19
2023-06-08T07:45:16.676Z,46.93
2023-06-08T07:46:16.706Z,46.57
2023-06-08T07:47:16.780Z,45.97
2023-06-08T07:48:16.791Z,46.27
2023-06-08T07:49:16.689Z,45.84
2023-06-08T07:50:16.695Z,46.07
2023-06-08T07:51:16.632Z,45.55
2023-06-08T07:53:16.665Z,45.32
2023-06-08T07:54:16.613Z,45.89
2023-06-08T07:55:16.610Z,46.21
2023-06-08T07:56:16.602Z,45.98
2023-06-08T07:57:17.358Z,46.49
2023-06-08T07:58:16.635Z,45.85
2023-06-08T07:59:16.579Z,46.20
2023-06-08T08:00:16.637Z,46.55
2023-06-08T08:01:17.364Z,47.81
2023-06-08T08:02:16.650Z,46.48
2023-06-08T08:03:16.634Z,46.04
2023-06-08T08:04:16.551Z,46.43
2023-06-08T08:05:16.540Z,46.13
2023-06-08T08:06:16.541Z,46.64
2023-06-08T08:07:17.373Z,46.51
2023-06-08T08:08:18.351Z,46.33
2023-06-08T08:09:16.867Z,46.68
2023-06-08T08:10:16.558Z,46.43
2023-06-08T08:11:16.477Z,46.44
2023-06-08T08:12:16.489Z,46.86
2023-06-08T08:13:16.481Z,46.54
2023-06-08T08:14:16.460Z,46.22
2023-06-08T08:15:16.490Z,46.57
2023-06-08T08:16:16.515Z,46.67
2023-06-08T08:17:16.620Z,47.26
2023-06-08T08:18:16.752Z,48.29
2023-06-08T08:19:16.720Z,48.41
2023-06-08T08:20:16.744Z,48.53
2023-06-08T08:21:16.797Z,48.38
2023-06-08T08:22:16.874Z,48.08
2023-06-08T08:23:16.958Z,47.84
2023-06-08T08:24:17.197Z,47.78
2023-06-08T08:25:17.028Z,47.51
2023-06-08T08:26:17.108Z,47.65
2023-06-08T08:27:18.589Z,48.07
2023-06-08T08:28:17.119Z,48.21
2023-06-08T08:29:17.127Z,48.66
2023-06-08T08:30:17.160Z,48.48
2023-06-08T08:31:17.242Z,48.58
2023-06-08T08:32:17.199Z,48.53
2023-06-08T08:33:18.125Z,48.62
2023-06-08T08:34:17.231Z,48.49
2023-06-08T08:35:17.274Z,48.44
2023-06-08T08:36:17.301Z,48.63
2023-06-08T08:37:17.305Z,48.71
2023-06-08T08:38:17.372Z,48.89
2023-06-08T08:39:17.415Z,48.26
2023-06-08T08:40:17.484Z,48.26
2023-06-08T08:41:17.670Z,48.62
2023-06-08T08:42:17.591Z,48.91
2023-06-08T08:43:17.627Z,49.00
2023-06-08T08:44:17.741Z,49.45
2023-06-08T08:45:17.635Z,49.59
2023-06-08T08:46:17.711Z,49.80
2023-06-08T08:47:17.665Z,49.79
2023-06-08T08:48:17.687Z,49.68
2023-06-08T08:49:17.674Z,49.92
2023-06-08T08:50:17.799Z,50.02
2023-06-08T08:51:17.746Z,50.11
2023-06-08T08:52:17.780Z,50.29
2023-06-08T08:53:17.802Z,50.23
2023-06-08T08:54:17.805Z,50.32
2023-06-08T08:55:30.380Z,50.75
2023-06-08T08:56:18.866Z,50.85
2023-06-08T08:57:17.761Z,50.24
2023-06-08T08:58:17.887Z,49.89
2023-06-08T08:59:17.790Z,50.20
2023-06-08T09:00:17.761Z,50.39
2023-06-08T09:01:17.768Z,50.69
2023-06-08T09:02:17.854Z,51.05
2023-06-08T09:03:17.794Z,51.22
2023-06-08T09:04:17.805Z,52.25
2023-06-08T09:05:17.709Z,52.82
2023-06-08T09:06:17.778Z,53.55
2023-06-08T09:07:18.354Z,54.17
2023-06-08T09:08:17.720Z,55.03
2023-06-08T09:09:17.692Z,55.11
2023-06-08T09:10:17.759Z,55.29
2023-06-08T09:11:17.702Z,55.32
2023-06-08T09:12:17.686Z,55.67
2023-06-08T09:13:17.705Z,55.44
2023-06-08T09:14:17.720Z,55.26
2023-06-08T09:15:17.824Z,55.52
2023-06-08T09:16:17.892Z,55.95
2023-06-08T09:17:17.862Z,56.32
2023-06-08T09:18:17.856Z,56.04
2023-06-08T09:19:17.852Z,56.28
2023-06-08T09:20:17.866Z,56.74
2023-06-08T09:21:17.877Z,56.86
2023-06-08T09:22:18.080Z,57.35
2023-06-08T09:23:17.952Z,57.90
2023-06-08T09:24:17.978Z,58.32
2023-06-08T09:25:17.955Z,57.96
2023-06-08T09:26:17.931Z,57.66
2023-06-08T09:27:17.954Z,58.30
2023-06-08T09:28:18.002Z,58.16
2023-06-08T09:29:18.022Z,58.59
2023-06-08T09:30:17.970Z,58.41
2023-06-08T09:31:18.085Z,59.19
2023-06-08T09:32:18.882Z,59.96
2023-06-08T09:33:18.073Z,59.81
2023-06-08T09:34:18.863Z,59.82
2023-06-08T09:35:17.985Z,60.25
2023-06-08T09:36:17.993Z,59.85
2023-06-08T09:37:17.986Z,60.33
2023-06-08T09:38:18.074Z,60.19
2023-06-08T09:39:18.054Z,60.49
2023-06-08T09:40:18.071Z,60.52
2023-06-08T09:41:18.093Z,60.38
2023-06-08T09:42:18.073Z,60.24
2023-06-08T09:43:18.103Z,60.30
2023-06-08T09:44:18.081Z,60.01
2023-06-08T09:45:18.117Z,59.91
2023-06-08T09:46:18.384Z,59.97
2023-06-08T09:47:18.150Z,60.28
2023-06-08T09:48:18.186Z,60.25
2023-06-08T09:49:18.181Z,60.69
2023-06-08T09:50:18.270Z,60.17
2023-06-08T09:51:18.192Z,59.16
2023-06-08T09:52:18.140Z,58.61
2023-06-08T09:53:18.228Z,58.44
2023-06-08T09:54:18.201Z,58.74
2023-06-08T09:55:18.259Z,58.62
2023-06-08T09:56:18.235Z,58.69
2023-06-08T09:57:18.228Z,59.35
2023-06-08T09:58:18.290Z,58.69
2023-06-08T09:59:18.287Z,58.26
2023-06-08T10:00:18.565Z,60.65
2023-06-08T10:01:18.468Z,61.31
2023-06-08T10:02:18.498Z,60.52
2023-06-08T10:03:18.712Z,60.11
2023-06-08T10:04:18.953Z,59.97
2023-06-08T10:05:18.659Z,60.88
2023-06-08T10:06:18.686Z,60.15
2023-06-08T10:07:18.747Z,60.28
2023-06-08T10:08:18.809Z,60.59
2023-06-08T10:09:18.794Z,60.33
2023-06-08T10:10:18.884Z,60.63
2023-06-08T10:11:18.885Z,61.62
2023-06-08T10:12:18.902Z,61.87
2023-06-08T10:13:18.997Z,61.90
2023-06-08T10:14:19.107Z,61.61
2023-06-08T10:15:19.074Z,61.24
2023-06-08T10:16:19.132Z,60.53
2023-06-08T10:17:19.155Z,60.21
2023-06-08T10:18:19.231Z,59.81
2023-06-08T10:19:19.281Z,60.93
2023-06-08T10:20:19.347Z,60.24
2023-06-08T10:21:19.339Z,59.60
2023-06-08T10:22:19.387Z,59.90
2023-06-08T10:23:19.479Z,59.68
2023-06-08T10:24:19.503Z,58.81
2023-06-08T10:25:19.499Z,60.15
2023-06-08T10:26:19.575Z,60.40
2023-06-08T10:27:19.602Z,60.59
2023-06-08T10:28:20.096Z,59.91
2023-06-08T10:29:22.575Z,58.09
2023-06-08T10:30:19.660Z,59.53
2023-06-08T10:31:19.720Z,59.37
2023-06-08T10:32:19.669Z,58.94
2023-06-08T10:33:19.712Z,57.15
2023-06-08T10:34:19.654Z,58.53
2023-06-08T10:35:19.699Z,59.58
2023-06-08T10:36:19.615Z,59.93
2023-06-08T10:37:19.615Z,60.68
2023-06-08T10:38:19.628Z,60.81
2023-06-08T10:39:19.632Z,61.04
2023-06-08T10:40:19.664Z,61.51
2023-06-08T10:41:19.648Z,61.44
2023-06-08T10:42:19.608Z,61.34
2023-06-08T10:43:48.335Z,61.06
2023-06-08T10:44:20.587Z,61.13
2023-06-08T10:45:20.378Z,61.37
2023-06-08T10:46:19.638Z,62.41
2023-06-08T10:47:19.559Z,61.04
2023-06-08T10:48:19.666Z,61.10
2023-06-08T10:49:19.560Z,60.71
2023-06-08T10:50:19.565Z,60.35
2023-06-08T10:51:19.544Z,60.15
2023-06-08T10:52:19.509Z,60.81
2023-06-08T10:53:19.532Z,60.96
2023-06-08T10:54:19.548Z,61.67
2023-06-08T10:55:19.561Z,61.78
2023-06-08T10:56:19.480Z,61.60
2023-06-08T10:57:19.479Z,61.36
2023-06-08T10:58:19.521Z,60.76
2023-06-08T10:59:19.509Z,61.69
2023-06-08T11:00:19.482Z,61.31
2023-06-08T11:01:19.506Z,60.83
2023-06-08T11:02:19.482Z,60.54
2023-06-08T11:03:19.539Z,59.83
2023-06-08T11:04:19.942Z,59.77
2023-06-08T11:05:19.548Z,60.07
2023-06-08T11:06:19.435Z,60.76
2023-06-08T11:07:21.162Z,60.03
2023-06-08T11:08:19.426Z,59.44
2023-06-08T11:09:19.462Z,58.95
2023-06-08T11:10:19.439Z,59.04
2023-06-08T11:11:19.450Z,59.11
2023-06-08T11:12:19.428Z,59.23
2023-06-08T11:13:19.480Z,58.60
2023-06-08T11:14:19.514Z,59.30
2023-06-08T11:15:19.575Z,59.68
2023-06-08T11:16:19.777Z,59.53
2023-06-08T11:17:19.635Z,59.36
2023-06-08T11:18:19.646Z,58.62
2023-06-08T11:19:19.659Z,59.94
2023-06-08T11:20:19.668Z,59.51
2023-06-08T11:21:19.648Z,58.40
2023-06-08T11:22:19.660Z,57.79
2023-06-08T11:23:19.666Z,57.52
2023-06-08T11:24:19.731Z,56.43
2023-06-08T11:25:19.681Z,56.37
2023-06-08T11:26:19.728Z,55.76
2023-06-08T11:27:19.731Z,55.69
2023-06-08T11:28:19.788Z,55.65
2023-06-08T11:29:19.845Z,56.30
2023-06-08T11:30:19.814Z,56.11
2023-06-08T11:31:19.973Z,55.95
2023-06-08T11:32:19.895Z,55.10
2023-06-08T11:33:19.968Z,54.77
2023-06-08T11:34:20.031Z,54.44
2023-06-08T11:35:20.056Z,52.58
2023-06-08T11:36:20.109Z,52.36
2023-06-08T11:37:20.175Z,53.03
2023-06-08T11:38:20.217Z,52.88
2023-06-08T11:39:20.274Z,52.71
2023-06-08T11:40:20.292Z,53.13
2023-06-08T11:41:20.382Z,53.02
2023-06-08T11:42:20.412Z,52.94
2023-06-08T11:43:20.415Z,52.73
2023-06-08T11:44:20.508Z,53.01
2023-06-08T11:45:20.576Z,54.10
2023-06-08T11:46:20.626Z,53.51
2023-06-08T11:47:20.724Z,53.78
2023-06-08T11:48:20.675Z,54.08
2023-06-08T11:49:20.730Z,53.97
2023-06-08T11:50:20.767Z,53.77
2023-06-08T11:51:20.779Z,54.36
2023-06-08T11:52:20.819Z,54.55
2023-06-08T11:53:20.899Z,54.29
2023-06-08T11:54:20.879Z,53.64
2023-06-08T11:55:20.869Z,53.32
2023-06-08T11:56:20.891Z,52.73
2023-06-08T11:57:20.900Z,51.56
2023-06-08T11:58:21.986Z,52.49
2023-06-08T11:59:20.965Z,52.27
2023-06-08T12:00:20.982Z,51.60
2023-06-08T12:01:20.984Z,51.24
2023-06-08T12:02:21.093Z,50.21
2023-06-08T12:03:21.109Z,49.17
2023-06-08T12:04:21.172Z,49.88
2023-06-08T12:05:23.251Z,49.94
2023-06-08T12:06:21.104Z,50.42
2023-06-08T12:07:21.205Z,50.13
2023-06-08T12:08:21.174Z,50.28
2023-06-08T12:09:21.214Z,50.67
2023-06-08T12:10:21.235Z,52.28
2023-06-08T12:11:24.115Z,50.72
2023-06-08T12:12:21.269Z,49.54
2023-06-08T12:13:21.250Z,48.23
2023-06-08T12:14:21.243Z,47.29
2023-06-08T12:15:21.255Z,45.81
2023-06-08T12:16:21.304Z,46.02
2023-06-08T12:17:21.367Z,46.68
2023-06-08T12:18:21.236Z,46.33
2023-06-08T12:19:21.219Z,46.50
2023-06-08T12:20:21.205Z,46.34
2023-06-08T12:21:21.189Z,46.77
2023-06-08T12:22:21.176Z,46.84
2023-06-08T12:23:23.823Z,47.65
2023-06-08T12:24:21.232Z,47.47
2023-06-08T12:25:21.205Z,47.93
2023-06-08T12:26:21.194Z,46.84
2023-06-08T12:27:21.146Z,46.31
2023-06-08T12:28:21.181Z,46.33
2023-06-08T12:29:23.184Z,45.95
2023-06-08T12:30:21.277Z,45.65
2023-06-08T12:31:21.244Z,45.76
2023-06-08T12:32:21.241Z,44.97
2023-06-08T12:33:21.224Z,46.13
2023-06-08T12:34:21.247Z,44.88
2023-06-08T12:35:23.164Z,44.58
2023-06-08T12:36:21.917Z,44.36
2023-06-08T12:37:21.340Z,44.43
2023-06-08T12:38:21.970Z,45.16
2023-06-08T12:39:21.446Z,46.01
2023-06-08T12:40:21.433Z,47.20
2023-06-08T12:41:21.504Z,47.51
2023-06-08T12:42:21.429Z,48.83
2023-06-08T12:43:21.387Z,48.33
2023-06-08T12:44:21.416Z,48.15
2023-06-08T12:45:21.359Z,48.35
2023-06-08T12:46:21.432Z,49.48
2023-06-08T12:47:21.376Z,49.75
2023-06-08T12:48:21.341Z,49.59
2023-06-08T12:49:21.366Z,49.52
2023-06-08T12:50:21.426Z,49.82
2023-06-08T12:51:21.501Z,50.62
2023-06-08T12:52:21.548Z,50.39
2023-06-08T12:53:21.638Z,51.92
2023-06-08T12:54:21.715Z,51.33